Time;durP1;ratioP1;P1;durP2;ratioP2;P2;SDS_P1;SDS_P2;PMS_P1;PMS_P2;Temp;Humidity;BMP_temperature;BMP_pressure;BME280_temperature;BME280_humidity;BME280_pressure;Samples;Min_cycle;Max_cycle;Signal;HPM_P1;HPM_P2
2022/10/24 00:01:15;;;;;;;2.13;0.80;;;20.60;99.70;;;;;;6183021;23;45471;-69
2022/10/24 00:03:44;;;;;;;1.38;0.50;;;20.60;99.50;;;;;;6183273;23;46265;-69
2022/10/24 00:06:13;;;;;;;1.23;0.57;;;20.60;99.50;;;;;;6182456;23;45153;-68
2022/10/24 00:08:42;;;;;;;1.42;0.60;;;20.60;99.50;;;;;;6182065;23;45315;-69
2022/10/24 00:11:10;;;;;;;1.75;0.60;;;20.60;99.50;;;;;;6183138;23;45344;-68
2022/10/24 00:13:37;;;;;;;2.13;0.88;;;20.60;99.40;;;;;;6182236;23;45444;-69
2022/10/24 00:16:04;;;;;;;0.60;0.50;;;20.60;99.40;;;;;;6182974;23;46030;-69
2022/10/24 00:18:31;;;;;;;1.35;0.60;;;20.60;99.40;;;;;;6182461;23;45492;-68
2022/10/24 00:20:59;;;;;;;1.50;0.50;;;20.60;99.30;;;;;;6183503;23;45362;-68
2022/10/24 00:23:26;;;;;;;1.60;0.82;;;20.60;99.70;;;;;;6182550;23;47487;-68
2022/10/24 00:25:52;;;;;;;0.77;0.57;;;20.60;99.10;;;;;;6182666;23;45248;-68
2022/10/24 00:28:19;;;;;;;1.65;0.68;;;20.60;99.20;;;;;;6182694;23;45360;-68
2022/10/24 00:30:50;;;;;;;0.63;0.52;;;20.60;99.10;;;;;;6182645;23;45409;-69
2022/10/24 00:33:16;;;;;;;1.63;0.60;;;20.60;99.20;;;;;;6181402;23;47505;-68
2022/10/24 00:35:43;;;;;;;1.65;0.60;;;20.60;99.20;;;;;;6182819;23;45162;-69
2022/10/24 00:38:11;;;;;;;0.93;0.50;;;20.60;99.20;;;;;;6181219;23;45225;-67
2022/10/24 00:40:38;;;;;;;3.28;0.60;;;20.60;99.20;;;;;;6184493;23;45381;-68
2022/10/24 00:43:09;;;;;;;3.17;0.70;;;20.60;99.10;;;;;;6182261;23;46602;-68
2022/10/24 00:45:45;;;;;;;1.75;0.50;;;20.60;99.10;;;;;;6183210;23;45791;-68
2022/10/24 00:48:17;;;;;;;1.15;0.85;;;20.60;99.10;;;;;;6181827;23;45288;-68
2022/10/24 00:50:46;;;;;;;1.63;0.70;;;20.60;99.10;;;;;;6183469;23;45359;-69
2022/10/24 00:53:16;;;;;;;2.05;0.70;;;20.60;99.10;;;;;;6182162;23;48067;-68
2022/10/24 00:55:43;;;;;;;1.90;0.75;;;20.60;99.00;;;;;;6182966;23;45253;-68
2022/10/24 00:58:11;;;;;;;1.30;0.70;;;20.60;99.10;;;;;;6182709;23;45248;-69
2022/10/24 01:00:38;;;;;;;0.95;0.60;;;20.60;99.00;;;;;;6182207;23;45493;-68
2022/10/24 01:03:04;;;;;;;1.23;0.80;;;20.60;99.00;;;;;;6182889;23;46616;-68
2022/10/24 01:05:39;;;;;;;0.85;0.50;;;20.60;99.00;;;;;;6182280;23;45195;-69
2022/10/24 01:08:21;;;;;;;0.70;0.55;;;20.60;98.90;;;;;;6181893;23;45238;-68
2022/10/24 01:10:59;;;;;;;2.05;0.70;;;20.60;98.90;;;;;;6182564;23;45437;-68
2022/10/24 01:13:35;;;;;;;0.57;0.50;;;20.60;98.90;;;;;;6182798;23;46047;-69
2022/10/24 01:16:09;;;;;;;2.38;0.60;;;20.60;98.80;;;;;;6183077;23;45221;-68
2022/10/24 01:18:42;;;;;;;1.67;0.63;;;20.60;98.80;;;;;;6181429;23;45399;-69
2022/10/24 01:21:15;;;;;;;2.38;0.80;;;20.60;98.80;;;;;;6183050;23;45310;-69
2022/10/24 01:24:11;;;;;;;1.27;0.75;;;20.60;98.70;;;;;;6181786;23;45351;-69
2022/10/24 01:27:12;;;;;;;1.25;0.68;;;20.60;98.70;;;;;;6182840;23;45271;-68
2022/10/24 01:29:49;;;;;;;1.50;0.70;;;20.60;98.70;;;;;;6182456;23;45277;-69
2022/10/24 01:32:27;;;;;;;1.77;0.77;;;20.60;98.60;;;;;;6183294;23;45261;-68
2022/10/24 01:35:00;;;;;;;1.88;0.70;;;20.60;98.60;;;;;;6181848;23;48018;-69
2022/10/24 01:37:33;;;;;;;1.73;0.60;;;20.60;98.70;;;;;;6182193;23;46007;-68
2022/10/24 01:40:05;;;;;;;1.65;0.80;;;20.60;98.70;;;;;;6180948;23;45233;-69
2022/10/24 01:42:35;;;;;;;1.13;0.60;;;20.60;98.60;;;;;;6182749;23;45257;-68
2022/10/24 01:45:06;;;;;;;1.73;0.82;;;20.60;98.70;;;;;;6182361;23;47081;-68
2022/10/24 01:47:37;;;;;;;2.22;0.85;;;20.60;98.70;;;;;;6182403;23;45299;-68
2022/10/24 01:50:08;;;;;;;2.20;0.50;;;20.60;98.60;;;;;;6182234;23;45415;-69
2022/10/24 01:52:40;;;;;;;1.10;0.60;;;20.60;98.60;;;;;;6182344;23;45360;-68
2022/10/24 01:55:08;;;;;;;1.00;0.77;;;20.60;98.60;;;;;;6182656;23;47442;-69
2022/10/24 01:57:35;;;;;;;3.60;0.70;;;20.60;98.50;;;;;;6182565;23;45299;-69
2022/10/24 02:00:07;;;;;;;0.88;0.52;;;20.60;98.50;;;;;;6181615;23;45292;-69
2022/10/24 02:02:39;;;;;;;1.45;0.52;;;20.60;98.40;;;;;;6183166;23;45392;-69
2022/10/24 02:05:11;;;;;;;1.23;0.73;;;20.60;98.50;;;;;;6182157;23;48013;-69
2022/10/24 02:07:42;;;;;;;1.15;0.60;;;20.60;98.40;;;;;;6182659;23;45383;-68
2022/10/24 02:10:13;;;;;;;0.63;0.57;;;20.60;98.40;;;;;;6180811;23;45360;-68
2022/10/24 02:12:43;;;;;;;1.00;0.57;;;20.60;98.40;;;;;;6182142;23;45293;-69
2022/10/24 02:15:18;;;;;;;1.70;0.52;;;20.60;98.20;;;;;;6182072;23;45306;-68
2022/10/24 02:17:45;;;;;;;0.60;0.50;;;20.60;98.20;;;;;;6181817;23;45316;-69
2022/10/24 02:20:12;;;;;;;2.50;0.70;;;20.60;98.50;;;;;;6182347;23;45361;-69
2022/10/24 02:22:45;;;;;;;1.60;0.98;;;20.60;98.10;;;;;;6181773;23;45244;-69
2022/10/24 02:25:18;;;;;;;1.17;0.50;;;20.60;98.10;;;;;;6182255;23;45462;-69
2022/10/24 02:27:53;;;;;;;0.60;0.57;;;20.60;98.00;;;;;;6181594;23;45252;-69
2022/10/24 02:30:23;;;;;;;1.27;0.63;;;20.60;98.10;;;;;;6182171;23;45277;-69
2022/10/24 02:32:55;;;;;;;2.00;0.70;;;20.60;98.00;;;;;;6180004;23;45526;-69
2022/10/24 02:35:27;;;;;;;2.28;0.68;;;20.60;98.00;;;;;;6182048;23;48020;-70
2022/10/24 02:37:59;;;;;;;0.80;0.40;;;20.60;98.00;;;;;;6179582;23;45174;-68
2022/10/24 02:40:26;;;;;;;1.30;0.70;;;20.60;98.00;;;;;;6181766;23;45473;-68
2022/10/24 02:42:57;;;;;;;1.17;0.60;;;20.60;97.90;;;;;;6182536;23;45376;-69
2022/10/24 02:45:26;;;;;;;0.80;0.50;;;20.60;98.00;;;;;;6181573;23;48575;-69
2022/10/24 02:47:58;;;;;;;0.70;0.43;;;20.60;97.90;;;;;;6182057;23;45684;-68
2022/10/24 02:50:26;;;;;;;0.80;0.57;;;20.60;97.90;;;;;;6182070;23;45354;-69
2022/10/24 02:52:52;;;;;;;0.95;0.60;;;20.60;97.90;;;;;;6181915;23;45191;-68
2022/10/24 02:55:19;;;;;;;1.20;0.60;;;20.60;97.90;;;;;;6182053;23;47313;-69
2022/10/24 02:57:46;;;;;;;0.77;0.68;;;20.60;97.90;;;;;;6181636;23;45274;-69
2022/10/24 03:00:13;;;;;;;1.30;0.50;;;20.60;97.70;;;;;;6183289;23;45245;-68
2022/10/24 03:02:41;;;;;;;1.10;0.60;;;20.60;97.70;;;;;;6183057;23;45161;-69
2022/10/24 03:05:09;;;;;;;0.40;0.40;;;20.60;97.60;;;;;;6182269;23;46346;-70
2022/10/24 03:07:36;;;;;;;2.25;0.50;;;20.60;98.00;;;;;;6182095;23;45433;-69
2022/10/24 03:10:04;;;;;;;0.85;0.47;;;20.60;97.60;;;;;;6179832;23;45269;-68
2022/10/24 03:12:31;;;;;;;0.40;0.40;;;20.60;97.50;;;;;;6184588;23;45460;-68
2022/10/24 03:14:57;;;;;;;1.52;0.70;;;20.60;97.50;;;;;;6182485;23;45322;-69
2022/10/24 03:17:24;;;;;;;1.65;0.60;;;20.60;97.40;;;;;;6183343;23;45226;-69
2022/10/24 03:19:52;;;;;;;0.77;0.55;;;20.60;97.40;;;;;;6182835;23;45463;-69
2022/10/24 03:22:19;;;;;;;1.30;0.75;;;20.60;97.40;;;;;;6182678;23;45324;-68
2022/10/24 03:24:47;;;;;;;1.00;0.60;;;20.60;97.40;;;;;;6183122;23;46659;-69
2022/10/24 03:27:14;;;;;;;0.75;0.47;;;20.60;97.30;;;;;;6182860;23;45360;-68
2022/10/24 03:29:40;;;;;;;0.57;0.50;;;20.60;97.30;;;;;;6182814;23;45401;-68
2022/10/24 03:32:07;;;;;;;0.50;0.43;;;20.50;97.20;;;;;;6183196;23;45288;-69
2022/10/24 03:34:34;;;;;;;1.17;0.40;;;20.60;97.20;;;;;;6180782;23;46701;-69
2022/10/24 03:37:02;;;;;;;0.38;0.38;;;20.50;97.10;;;;;;6182905;23;45204;-69
2022/10/24 03:39:29;;;;;;;1.95;0.50;;;20.60;97.20;;;;;;6180952;23;45459;-68
2022/10/24 03:41:55;;;;;;;0.40;0.40;;;20.60;97.10;;;;;;6183276;23;45210;-70
2022/10/24 03:44:22;;;;;;;1.08;0.40;;;20.60;97.00;;;;;;6182680;23;46272;-69
2022/10/24 03:46:49;;;;;;;1.75;0.57;;;20.60;97.10;;;;;;6182991;23;45241;-68
2022/10/24 03:49:16;;;;;;;1.35;0.50;;;20.50;97.10;;;;;;6182962;23;45248;-68
2022/10/24 03:51:42;;;;;;;0.93;0.40;;;20.60;97.10;;;;;;6183169;23;45339;-68
2022/10/24 03:54:14;;;;;;;1.10;0.40;;;20.50;97.00;;;;;;6183120;23;46513;-69
2022/10/24 03:56:40;;;;;;;0.50;0.50;;;20.50;97.00;;;;;;6182612;23;45285;-69
2022/10/24 03:59:07;;;;;;;1.10;0.75;;;20.60;96.90;;;;;;6182839;23;45217;-68
2022/10/24 04:01:34;;;;;;;1.85;0.75;;;20.60;96.90;;;;;;6183287;23;45566;-69
2022/10/24 04:04:00;;;;;;;0.98;0.50;;;20.60;96.90;;;;;;6183166;23;46421;-69
2022/10/24 04:06:27;;;;;;;1.15;0.70;;;20.60;96.80;;;;;;6183327;23;45410;-69
2022/10/24 04:08:55;;;;;;;2.30;0.60;;;20.60;96.70;;;;;;6181683;23;45265;-69
2022/10/24 04:11:24;;;;;;;1.75;0.40;;;20.60;96.70;;;;;;6181980;23;45208;-68
2022/10/24 04:13:51;;;;;;;0.50;0.40;;;20.60;96.60;;;;;;6182334;23;48585;-68
2022/10/24 04:16:17;;;;;;;0.70;0.50;;;20.60;96.60;;;;;;6183629;23;46008;-69
2022/10/24 04:18:44;;;;;;;1.52;0.60;;;20.60;96.60;;;;;;6182326;23;45241;-69
2022/10/24 04:21:11;;;;;;;1.20;0.50;;;20.60;96.60;;;;;;6182856;23;45313;-69
2022/10/24 04:23:40;;;;;;;1.35;0.52;;;20.50;96.50;;;;;;6182938;23;46431;-69
2022/10/24 04:26:06;;;;;;;1.35;0.40;;;20.60;96.50;;;;;;6182241;23;45472;-69
2022/10/24 04:28:35;;;;;;;0.45;0.30;;;20.60;96.40;;;;;;6182392;23;45366;-69
2022/10/24 04:31:01;;;;;;;0.70;0.45;;;20.60;96.40;;;;;;6182605;23;45363;-68
2022/10/24 04:33:28;;;;;;;0.52;0.40;;;20.60;96.40;;;;;;6180952;23;47528;-69
2022/10/24 04:35:55;;;;;;;0.43;0.35;;;20.60;96.40;;;;;;6183085;23;45213;-68
2022/10/24 04:38:22;;;;;;;0.60;0.50;;;20.60;96.30;;;;;;6179205;23;45250;-69
2022/10/24 04:40:50;;;;;;;1.77;0.68;;;20.50;96.30;;;;;;6183591;23;45380;-69
2022/10/24 04:43:18;;;;;;;0.40;0.40;;;20.60;96.40;;;;;;6181548;23;46583;-69
2022/10/24 04:45:47;;;;;;;0.75;0.40;;;20.60;96.30;;;;;;6182671;23;45280;-69
2022/10/24 04:48:14;;;;;;;0.70;0.43;;;20.50;96.30;;;;;;6181818;23;45324;-69
2022/10/24 04:50:42;;;;;;;1.17;0.40;;;20.50;96.20;;;;;;6182944;23;45348;-69
2022/10/24 04:53:09;;;;;;;0.40;0.30;;;20.50;96.30;;;;;;6183902;23;47076;-68
2022/10/24 04:55:36;;;;;;;1.13;0.60;;;20.50;96.10;;;;;;6182789;23;45214;-69
2022/10/24 04:58:03;;;;;;;0.82;0.40;;;20.50;96.10;;;;;;6183013;23;45313;-68
2022/10/24 05:00:30;;;;;;;0.68;0.50;;;20.50;96.00;;;;;;6182222;23;45300;-69
2022/10/24 05:02:58;;;;;;;1.15;0.30;;;20.50;95.90;;;;;;6183054;23;47480;-69
2022/10/24 05:05:25;;;;;;;0.47;0.40;;;20.60;95.70;;;;;;6182912;23;46135;-69
2022/10/24 05:07:52;;;;;;;0.50;0.47;;;20.60;95.50;;;;;;6182430;23;45407;-69
2022/10/24 05:10:18;;;;;;;1.33;0.60;;;20.60;95.40;;;;;;6182368;23;45351;-68
2022/10/24 05:12:45;;;;;;;1.77;0.50;;;20.60;95.20;;;;;;6182023;23;47047;-68
2022/10/24 05:15:13;;;;;;;0.88;0.50;;;20.60;95.20;;;;;;6182465;23;45293;-68
2022/10/24 05:17:40;;;;;;;2.85;0.50;;;20.60;95.30;;;;;;6182587;23;45203;-68
2022/10/24 05:20:10;;;;;;;1.30;0.68;;;20.60;95.40;;;;;;6181594;23;45185;-69
2022/10/24 05:22:37;;;;;;;0.90;0.40;;;20.60;95.50;;;;;;6182487;23;47396;-67
2022/10/24 05:25:04;;;;;;;1.30;0.50;;;20.60;95.50;;;;;;6181341;23;45229;-68
2022/10/24 05:27:31;;;;;;;1.23;0.40;;;20.60;95.60;;;;;;6183000;23;45485;-67
2022/10/24 05:29:58;;;;;;;1.00;0.40;;;20.60;95.60;;;;;;6180574;23;45195;-68
2022/10/24 05:32:25;;;;;;;0.73;0.30;;;20.60;95.70;;;;;;6180896;23;45470;-69
2022/10/24 05:34:52;;;;;;;0.82;0.40;;;20.60;95.70;;;;;;6181051;23;45503;-68
2022/10/24 05:37:20;;;;;;;0.95;0.47;;;20.60;95.60;;;;;;6182191;23;45351;-68
2022/10/24 05:39:47;;;;;;;1.08;0.65;;;20.60;95.70;;;;;;6179405;23;45567;-68
2022/10/24 05:42:14;;;;;;;2.10;0.50;;;20.60;95.50;;;;;;6181597;23;45256;-69
2022/10/24 05:44:41;;;;;;;0.40;0.40;;;20.60;95.50;;;;;;6183397;23;45334;-68
2022/10/24 05:47:08;;;;;;;1.20;0.60;;;20.50;95.40;;;;;;6181383;23;45299;-68
2022/10/24 05:49:35;;;;;;;1.30;0.50;;;20.60;95.60;;;;;;6182179;23;45253;-68
2022/10/24 05:52:02;;;;;;;1.10;0.40;;;20.50;95.10;;;;;;6182116;23;48860;-68
2022/10/24 05:54:30;;;;;;;0.87;0.40;;;20.50;95.10;;;;;;6181426;23;45557;-68
2022/10/24 05:56:57;;;;;;;1.30;0.50;;;20.50;95.00;;;;;;6181218;23;45323;-68
2022/10/24 05:59:24;;;;;;;0.30;0.30;;;20.50;95.10;;;;;;6179951;23;45308;-68
2022/10/24 06:01:50;;;;;;;1.85;0.50;;;20.50;94.90;;;;;;6182288;23;46293;-68
2022/10/24 06:04:17;;;;;;;2.10;0.63;;;20.60;94.80;;;;;;6182115;23;45277;-68
2022/10/24 06:06:45;;;;;;;1.42;0.40;;;20.60;94.70;;;;;;6182169;23;45280;-68
2022/10/24 06:09:13;;;;;;;0.40;0.40;;;20.60;94.80;;;;;;6182151;23;45517;-68
2022/10/24 06:11:41;;;;;;;1.10;0.50;;;20.60;94.60;;;;;;6181695;23;46368;-68
2022/10/24 06:14:08;;;;;;;0.52;0.40;;;20.60;94.50;;;;;;6182403;23;45217;-68
2022/10/24 06:16:35;;;;;;;0.40;0.38;;;20.60;94.70;;;;;;6182307;23;45285;-69
2022/10/24 06:19:02;;;;;;;1.38;0.40;;;20.60;94.60;;;;;;6181996;23;45304;-68
2022/10/24 06:21:28;;;;;;;0.70;0.47;;;20.60;94.60;;;;;;6182127;23;46356;-68
2022/10/24 06:23:55;;;;;;;0.52;0.40;;;20.60;94.70;;;;;;6182246;23;45325;-69
2022/10/24 06:26:22;;;;;;;1.20;0.55;;;20.60;94.70;;;;;;6180778;23;45273;-69
2022/10/24 06:28:50;;;;;;;1.27;0.40;;;20.60;94.80;;;;;;6180039;23;45377;-69
2022/10/24 06:31:19;;;;;;;2.60;0.30;;;20.60;94.70;;;;;;6181575;23;48482;-69
2022/10/24 06:33:45;;;;;;;2.05;0.60;;;20.60;94.70;;;;;;6183054;23;45273;-69
2022/10/24 06:36:13;;;;;;;0.22;0.20;;;20.60;94.80;;;;;;6182872;23;45445;-68
2022/10/24 06:38:40;;;;;;;0.82;0.47;;;20.60;94.80;;;;;;6180390;23;45757;-68
2022/10/24 06:41:08;;;;;;;0.93;0.47;;;20.60;94.80;;;;;;6182955;23;48187;-68
2022/10/24 06:43:36;;;;;;;0.85;0.30;;;20.60;94.80;;;;;;6183543;23;45357;-68
2022/10/24 06:46:07;;;;;;;0.75;0.45;;;20.60;94.70;;;;;;6183280;23;45193;-69
2022/10/24 06:48:34;;;;;;;0.90;0.52;;;20.60;94.80;;;;;;6182134;23;45430;-68
2022/10/24 06:51:01;;;;;;;2.00;0.40;;;20.60;94.80;;;;;;6183110;23;47519;-68
2022/10/24 06:53:27;;;;;;;0.73;0.43;;;20.60;94.70;;;;;;6182612;23;45313;-68
2022/10/24 06:55:54;;;;;;;0.82;0.40;;;20.60;94.80;;;;;;6183736;23;45325;-68
2022/10/24 06:58:21;;;;;;;1.17;0.40;;;20.60;94.70;;;;;;6183074;23;45276;-68
2022/10/24 07:00:48;;;;;;;1.13;0.40;;;20.60;94.90;;;;;;6182507;23;45296;-68
2022/10/24 07:03:16;;;;;;;0.47;0.47;;;20.60;94.90;;;;;;6183378;23;45265;-68
2022/10/24 07:05:43;;;;;;;2.10;0.43;;;20.60;94.80;;;;;;6182239;23;45302;-68
2022/10/24 07:08:10;;;;;;;0.50;0.30;;;20.60;94.80;;;;;;6182672;23;45216;-68
2022/10/24 07:10:36;;;;;;;0.57;0.52;;;20.60;94.80;;;;;;6182688;23;46360;-69
2022/10/24 07:13:03;;;;;;;1.75;0.43;;;20.60;94.70;;;;;;6182515;23;45298;-68
2022/10/24 07:15:30;;;;;;;0.20;0.20;;;20.60;94.80;;;;;;6183986;23;45385;-69
2022/10/24 07:17:57;;;;;;;0.47;0.40;;;20.60;94.70;;;;;;6183407;23;45374;-69
2022/10/24 07:20:25;;;;;;;0.40;0.30;;;20.60;94.80;;;;;;6182106;23;45291;-68
2022/10/24 07:22:52;;;;;;;0.65;0.40;;;20.60;94.80;;;;;;6183027;23;45243;-68
2022/10/24 07:25:18;;;;;;;0.93;0.50;;;20.60;94.80;;;;;;6182764;23;45267;-69
2022/10/24 07:27:45;;;;;;;0.80;0.47;;;20.60;94.80;;;;;;6183279;23;45174;-68
2022/10/24 07:30:17;;;;;;;0.93;0.38;;;20.60;94.80;;;;;;6182582;23;46221;-69
2022/10/24 07:32:44;;;;;;;0.93;0.40;;;20.60;94.70;;;;;;6181686;23;45361;-69
2022/10/24 07:35:12;;;;;;;0.98;0.35;;;20.60;94.70;;;;;;6183256;23;45208;-69
2022/10/24 07:37:40;;;;;;;0.30;0.30;;;20.60;94.60;;;;;;6180096;23;45314;-70
2022/10/24 07:40:08;;;;;;;0.35;0.35;;;20.60;95.10;;;;;;6181999;23;45270;-68
2022/10/24 07:42:35;;;;;;;1.20;0.50;;;20.60;94.70;;;;;;6183069;23;46051;-68
2022/10/24 07:45:03;;;;;;;1.27;0.40;;;20.60;94.70;;;;;;6182504;23;45362;-68
2022/10/24 07:47:30;;;;;;;1.85;0.45;;;20.60;94.80;;;;;;6183397;23;45427;-69
2022/10/24 07:49:56;;;;;;;1.05;0.30;;;20.60;94.70;;;;;;6180958;23;46351;-68
2022/10/24 07:52:25;;;;;;;1.65;0.30;;;20.60;94.70;;;;;;6126544;23;45336;-69
2022/10/24 07:54:54;;;;;;;0.25;0.22;;;20.60;94.70;;;;;;6153014;23;45194;-69
2022/10/24 07:57:21;;;;;;;0.57;0.28;;;20.60;94.70;;;;;;6152161;23;45329;-68
2022/10/24 07:59:48;;;;;;;1.27;0.40;;;20.60;94.80;;;;;;6152427;23;47940;-68
2022/10/24 08:02:17;;;;;;;0.95;0.40;;;20.60;94.80;;;;;;6152334;23;45736;-68
2022/10/24 08:04:44;;;;;;;0.75;0.43;;;20.60;94.80;;;;;;6153269;23;45258;-68
2022/10/24 08:07:12;;;;;;;0.55;0.30;;;20.60;94.80;;;;;;6153058;23;45450;-68
2022/10/24 08:09:39;;;;;;;0.60;0.30;;;20.60;94.70;;;;;;6151373;23;47124;-68
2022/10/24 08:12:08;;;;;;;1.52;0.50;;;20.60;94.70;;;;;;6152801;23;45239;-68
2022/10/24 08:14:36;;;;;;;0.57;0.30;;;20.60;94.70;;;;;;6152521;23;45369;-68
2022/10/24 08:17:03;;;;;;;0.93;0.40;;;20.60;94.70;;;;;;6153324;23;45236;-69
2022/10/24 08:19:30;;;;;;;1.00;0.50;;;20.60;94.70;;;;;;6151999;23;46399;-69
2022/10/24 08:21:57;;;;;;;0.82;0.40;;;20.60;94.70;;;;;;6152398;23;45439;-68
2022/10/24 08:24:23;;;;;;;1.05;0.40;;;20.60;94.70;;;;;;6152960;23;45225;-68
2022/10/24 08:26:50;;;;;;;1.38;0.40;;;20.60;94.60;;;;;;6152679;23;45493;-68
2022/10/24 08:29:21;;;;;;;0.77;0.45;;;20.60;94.70;;;;;;6151856;23;47730;-68
2022/10/24 08:31:50;;;;;;;1.30;0.60;;;20.60;94.70;;;;;;6152452;23;45254;-69
2022/10/24 08:34:17;;;;;;;0.20;0.20;;;20.60;94.60;;;;;;6149883;23;45410;-68
2022/10/24 08:36:44;;;;;;;3.33;0.40;;;20.60;94.70;;;;;;6152999;23;45397;-68
2022/10/24 08:39:11;;;;;;;0.75;0.45;;;20.60;94.70;;;;;;6119585;23;47264;-69
2022/10/24 08:41:42;;;;;;;1.50;0.40;;;20.60;94.70;;;;;;6121737;23;45415;-68
2022/10/24 08:44:19;;;;;;;1.30;0.22;;;20.60;94.60;;;;;;6122332;23;45351;-68
2022/10/24 08:46:51;;;;;;;0.45;0.30;;;20.60;94.70;;;;;;6123036;23;45292;-68
2022/10/24 08:49:25;;;;;;;1.00;0.50;;;20.50;94.70;;;;;;6122370;23;47054;-68
2022/10/24 08:51:56;;;;;;;0.80;0.38;;;20.60;94.80;;;;;;6122627;23;45269;-69
2022/10/24 08:54:28;;;;;;;1.33;0.65;;;20.60;94.80;;;;;;6122848;23;45195;-69
2022/10/24 08:56:56;;;;;;;0.75;0.40;;;20.60;94.80;;;;;;6123884;23;45355;-68
2022/10/24 08:59:26;;;;;;;2.22;0.47;;;20.50;94.80;;;;;;6121893;23;46469;-68
2022/10/24 09:01:58;;;;;;;1.17;0.30;;;20.50;94.80;;;;;;6123764;23;45218;-69
2022/10/24 09:04:31;;;;;;;0.98;0.40;;;20.50;94.70;;;;;;6123402;23;45401;-68
2022/10/24 09:06:58;;;;;;;1.05;0.40;;;20.50;94.70;;;;;;6123632;23;45342;-68
2022/10/24 09:09:30;;;;;;;1.15;0.30;;;20.50;94.70;;;;;;6122563;23;47361;-68
2022/10/24 09:12:01;;;;;;;1.13;0.20;;;20.60;94.70;;;;;;6122532;23;45368;-69
2022/10/24 09:14:30;;;;;;;0.68;0.40;;;20.60;94.70;;;;;;6123469;23;45221;-68
2022/10/24 09:17:02;;;;;;;0.68;0.38;;;20.50;94.60;;;;;;6122787;23;45408;-69
2022/10/24 09:19:30;;;;;;;0.57;0.50;;;20.60;94.60;;;;;;6122372;23;46163;-69
2022/10/24 09:22:00;;;;;;;0.95;0.40;;;20.60;94.50;;;;;;6122954;23;45242;-69
2022/10/24 09:24:37;;;;;;;0.52;0.35;;;20.60;94.50;;;;;;6122574;23;45340;-69
2022/10/24 09:27:07;;;;;;;2.10;0.43;;;20.60;94.40;;;;;;6123501;23;45341;-68
2022/10/24 09:29:34;;;;;;;0.98;0.30;;;20.60;94.40;;;;;;6122091;23;48124;-68
2022/10/24 09:32:03;;;;;;;0.82;0.50;;;20.60;94.40;;;;;;6122333;23;45274;-69
2022/10/24 09:34:30;;;;;;;1.15;0.30;;;20.60;94.30;;;;;;6120999;23;45254;-69
2022/10/24 09:36:57;;;;;;;0.40;0.20;;;20.60;94.30;;;;;;6124066;23;45423;-70
2022/10/24 09:39:28;;;;;;;0.65;0.30;;;20.60;94.30;;;;;;6150716;23;47397;-68
2022/10/24 09:41:55;;;;;;;1.33;0.50;;;20.60;94.30;;;;;;6151585;23;45277;-68
2022/10/24 09:44:31;;;;;;;2.30;0.47;;;20.60;94.30;;;;;;6152655;23;45413;-69
2022/10/24 09:46:59;;;;;;;2.15;0.47;;;20.60;94.30;;;;;;6152983;23;45360;-68
2022/10/24 09:49:35;;;;;;;0.20;0.20;;;20.60;94.30;;;;;;6150978;23;45263;-68
2022/10/24 09:52:07;;;;;;;1.23;0.57;;;20.60;94.30;;;;;;6152481;23;45441;-68
2022/10/24 09:54:34;;;;;;;1.33;0.50;;;20.60;94.30;;;;;;6151877;23;45358;-69
2022/10/24 09:57:06;;;;;;;0.25;0.22;;;20.60;94.30;;;;;;6153132;23;45335;-68
2022/10/24 09:59:40;;;;;;;0.50;0.30;;;20.60;94.30;;;;;;6152035;23;47606;-69
2022/10/24 10:02:19;;;;;;;0.52;0.28;;;20.60;94.30;;;;;;6151925;23;45308;-68
2022/10/24 10:04:49;;;;;;;1.20;0.40;;;20.60;94.30;;;;;;6152871;23;45378;-69
2022/10/24 10:07:19;;;;;;;1.15;0.35;;;20.60;94.30;;;;;;6151875;23;45372;-68
2022/10/24 10:09:51;;;;;;;1.67;0.55;;;20.60;94.30;;;;;;6151776;23;47627;-68
2022/10/24 10:12:27;;;;;;;1.38;0.40;;;20.60;94.30;;;;;;6150831;23;45267;-69
2022/10/24 10:14:54;;;;;;;3.35;0.40;;;20.60;94.30;;;;;;6152642;23;45273;-68
2022/10/24 10:17:25;;;;;;;1.52;0.50;;;20.60;94.30;;;;;;6152329;23;45368;-69
2022/10/24 10:19:54;;;;;;;1.58;0.30;;;20.60;94.30;;;;;;6150630;23;45233;-68
2022/10/24 10:22:25;;;;;;;1.23;0.68;;;20.70;94.30;;;;;;6152351;23;45338;-69
2022/10/24 10:24:52;;;;;;;0.85;0.30;;;20.60;94.30;;;;;;6151894;23;45285;-69
2022/10/24 10:27:32;;;;;;;0.90;0.35;;;20.60;94.30;;;;;;6152382;23;45360;-68
2022/10/24 10:30:18;;;;;;;1.20;0.30;;;20.70;94.30;;;;;;6151340;23;46539;-68
2022/10/24 10:32:53;;;;;;;2.65;0.50;;;20.70;94.30;;;;;;6150444;23;45473;-69
2022/10/24 10:35:26;;;;;;;1.45;0.38;;;20.60;94.30;;;;;;6152763;23;45422;-68
2022/10/24 10:38:00;;;;;;;2.10;0.50;;;20.70;94.30;;;;;;6149406;23;45489;-69
2022/10/24 10:40:32;;;;;;;1.60;0.38;;;20.70;94.30;;;;;;6151320;23;46955;-69
2022/10/24 10:43:22;;;;;;;0.80;0.35;;;20.70;94.30;;;;;;6151746;23;45226;-69
2022/10/24 10:45:56;;;;;;;1.20;0.30;;;20.70;94.30;;;;;;6150504;23;45358;-68
2022/10/24 10:48:38;;;;;;;1.13;0.38;;;20.70;94.30;;;;;;6151932;23;45515;-69
2022/10/24 10:51:16;;;;;;;0.40;0.15;;;20.70;94.30;;;;;;6150503;23;46589;-68
2022/10/24 10:53:50;;;;;;;1.10;0.30;;;20.70;94.30;;;;;;6151654;23;45229;-68
2022/10/24 10:56:31;;;;;;;1.30;0.32;;;20.70;94.30;;;;;;6151632;23;45410;-69
2022/10/24 10:59:11;;;;;;;1.10;0.40;;;20.60;94.30;;;;;;6151488;23;45290;-68
2022/10/24 11:01:48;;;;;;;0.60;0.45;;;20.70;94.30;;;;;;6151760;23;45337;-69
2022/10/24 11:04:25;;;;;;;0.77;0.32;;;20.70;94.30;;;;;;6151643;23;45349;-70
2022/10/24 11:07:02;;;;;;;1.15;0.50;;;20.70;94.20;;;;;;6151679;23;45294;-69
2022/10/24 11:09:33;;;;;;;0.40;0.40;;;20.70;94.30;;;;;;6150597;23;45379;-69
2022/10/24 11:12:06;;;;;;;1.08;0.40;;;20.70;94.30;;;;;;6151711;23;48390;-68
2022/10/24 11:14:36;;;;;;;2.53;0.30;;;20.70;94.30;;;;;;6150927;23;45926;-69
2022/10/24 11:17:10;;;;;;;1.33;0.50;;;20.70;94.20;;;;;;6152049;23;45206;-68
2022/10/24 11:19:45;;;;;;;1.38;0.30;;;20.70;94.10;;;;;;6152766;23;45249;-68
2022/10/24 11:22:20;;;;;;;0.85;0.30;;;20.70;94.20;;;;;;6152909;23;45657;-70
2022/10/24 11:24:54;;;;;;;0.55;0.35;;;20.70;94.20;;;;;;6153391;23;46683;-70
2022/10/24 11:27:25;;;;;;;0.60;0.30;;;20.70;94.10;;;;;;6152895;23;45351;-69
2022/10/24 11:29:57;;;;;;;1.60;0.50;;;20.70;94.20;;;;;;6152455;23;45230;-68
2022/10/24 11:32:31;;;;;;;1.27;0.40;;;20.70;94.30;;;;;;6152195;23;47305;-68
2022/10/24 11:35:01;;;;;;;1.75;0.43;;;20.70;94.30;;;;;;6152450;23;45310;-68
2022/10/24 11:37:34;;;;;;;4.05;0.50;;;20.70;94.30;;;;;;6152790;23;45457;-68
2022/10/24 11:40:06;;;;;;;3.40;0.52;;;20.70;94.30;;;;;;6150442;23;45307;-67
2022/10/24 11:42:42;;;;;;;1.48;0.90;;;20.70;94.30;;;;;;6151199;23;45611;-68
2022/10/24 11:45:12;;;;;;;3.22;0.43;;;20.70;94.30;;;;;;6151680;23;45202;-68
2022/10/24 11:47:57;;;;;;;2.22;0.55;;;20.70;94.30;;;;;;6151241;23;45340;-68
2022/10/24 11:50:28;;;;;;;4.50;0.60;;;20.70;94.30;;;;;;6151331;23;45406;-68
2022/10/24 11:53:02;;;;;;;2.40;0.38;;;20.70;94.20;;;;;;6150781;23;47805;-68
2022/10/24 11:55:37;;;;;;;1.77;0.50;;;20.70;94.00;;;;;;6152575;23;45221;-68
2022/10/24 11:58:10;;;;;;;0.95;0.40;;;20.70;94.00;;;;;;6151739;23;45289;-68
2022/10/24 12:00:56;;;;;;;1.58;0.47;;;20.80;94.00;;;;;;6151786;23;45289;-69
2022/10/24 12:03:50;;;;;;;0.43;0.32;;;20.80;93.90;;;;;;6152972;23;47063;-68
2022/10/24 12:06:57;;;;;;;0.60;0.40;;;20.70;94.00;;;;;;6152384;23;45901;-68
2022/10/24 12:09:41;;;;;;;0.43;0.30;;;20.80;94.00;;;;;;6152560;23;45232;-69
2022/10/24 12:12:27;;;;;;;1.13;0.40;;;20.80;94.00;;;;;;6152247;23;45307;-68
2022/10/24 12:15:06;;;;;;;1.52;0.68;;;20.80;94.00;;;;;;6152942;23;47897;-68
2022/10/24 12:17:46;;;;;;;0.80;0.20;;;20.80;94.10;;;;;;6152704;23;45246;-68
2022/10/24 12:20:17;;;;;;;1.25;0.40;;;20.80;94.00;;;;;;6152115;23;45282;-68
2022/10/24 12:22:45;;;;;;;1.60;0.40;;;20.80;94.00;;;;;;6152396;23;45240;-69
2022/10/24 12:25:22;;;;;;;3.97;0.45;;;20.80;94.10;;;;;;6150811;23;46243;-68
2022/10/24 12:27:54;;;;;;;3.30;0.32;;;20.80;94.10;;;;;;6152161;23;45305;-68
2022/10/24 12:30:24;;;;;;;1.75;0.47;;;20.80;94.10;;;;;;6149946;23;45468;-66
2022/10/24 12:32:56;;;;;;;3.33;0.50;;;20.80;94.10;;;;;;6151199;23;45436;-69
2022/10/24 12:35:56;;;;;;;1.85;0.60;;;20.80;94.20;;;;;;6152425;23;46591;-68
2022/10/24 12:39:05;;;;;;;1.52;0.52;;;20.80;94.00;;;;;;6150093;23;45315;-68
2022/10/24 12:41:41;;;;;;;1.75;0.40;;;20.80;94.10;;;;;;6152457;23;45437;-68
2022/10/24 12:44:50;;;;;;;1.10;0.43;;;20.80;94.10;;;;;;6152480;23;45249;-68
2022/10/24 12:47:30;;;;;;;1.00;0.30;;;20.80;94.10;;;;;;6152401;23;46604;-68
2022/10/24 12:49:58;;;;;;;3.53;0.50;;;20.70;94.00;;;;;;6152001;23;46336;-69
2022/10/24 12:53:00;;;;;;;1.02;0.30;;;20.70;93.90;;;;;;6152724;23;45245;-68
2022/10/24 12:56:03;;;;;;;0.68;0.20;;;20.70;94.00;;;;;;6152653;23;45535;-68
2022/10/24 12:58:35;;;;;;;1.75;0.50;;;20.70;94.10;;;;;;6108405;23;46573;-68
2022/10/24 13:01:05;;;;;;;0.20;0.20;;;20.70;94.20;;;;;;6151375;23;45218;-68
2022/10/24 13:03:54;;;;;;;1.23;0.30;;;20.70;94.30;;;;;;6153074;23;45241;-68
2022/10/24 13:06:27;;;;;;;0.95;0.30;;;20.70;94.70;;;;;;6152646;23;45251;-68